createdAt,value
2018-12-12T00:01:57.515Z,17.16
2018-12-12T00:04:31.256Z,17.19
2018-12-12T00:07:20.379Z,17.22
2018-12-12T00:09:53.195Z,17.09
2018-12-12T00:12:24.998Z,17.03
2018-12-12T00:14:57.861Z,17.13
2018-12-12T00:17:29.877Z,17.17
2018-12-12T00:20:03.900Z,17.17
2018-12-12T00:22:35.832Z,17.11
2018-12-12T00:25:07.757Z,17.14
2018-12-12T00:27:39.515Z,17.13
2018-12-12T00:30:11.441Z,17.22
2018-12-12T00:32:43.305Z,17.14
2018-12-12T00:35:15.165Z,17.16
2018-12-12T00:37:47.953Z,17.16
2018-12-12T00:40:19.774Z,17.20
2018-12-12T00:42:51.824Z,17.19
2018-12-12T00:45:24.170Z,17.15
2018-12-12T00:47:55.892Z,17.16
2018-12-12T00:50:27.850Z,17.16
2018-12-12T00:52:59.689Z,17.15
2018-12-12T00:55:31.475Z,17.12
2018-12-12T00:58:03.049Z,17.13
2018-12-12T01:00:34.711Z,17.08
2018-12-12T01:03:06.673Z,17.10
2018-12-12T01:05:38.591Z,17.13
2018-12-12T01:08:10.653Z,17.12
2018-12-12T01:10:42.699Z,17.13
2018-12-12T01:13:14.860Z,17.12
2018-12-12T01:15:46.811Z,17.10
2018-12-12T01:18:18.873Z,17.05
2018-12-12T01:20:50.957Z,17.02
2018-12-12T01:23:22.651Z,17.01
2018-12-12T01:25:54.394Z,16.98
2018-12-12T01:28:26.096Z,16.98
2018-12-12T01:30:58.054Z,16.98
2018-12-12T01:33:29.994Z,16.97
2018-12-12T01:36:01.807Z,16.95
2018-12-12T01:38:33.559Z,16.93
2018-12-12T01:41:05.331Z,16.85
2018-12-12T01:43:36.919Z,16.88
2018-12-12T01:46:09.185Z,16.94
2018-12-12T01:48:41.133Z,17.41
2018-12-12T01:51:12.879Z,17.93
2018-12-12T01:53:47.169Z,18.10
2018-12-12T01:56:19.088Z,18.21
2018-12-12T01:58:50.693Z,18.25
2018-12-12T02:01:22.388Z,18.21
2018-12-12T02:03:54.155Z,18.26
2018-12-12T02:06:26.089Z,17.98
2018-12-12T02:08:58.034Z,17.99
2018-12-12T02:11:29.899Z,17.96
2018-12-12T02:14:01.516Z,18.05
2018-12-12T02:16:33.962Z,18.03
2018-12-12T02:19:06.147Z,17.95
2018-12-12T02:21:37.795Z,18.00
2018-12-12T02:24:09.647Z,17.86
2018-12-12T02:26:41.514Z,17.90
2018-12-12T02:29:12.978Z,17.93
2018-12-12T02:31:44.976Z,17.97
2018-12-12T02:34:16.880Z,17.99
2018-12-12T02:36:48.798Z,17.94
2018-12-12T02:39:20.534Z,18.01
2018-12-12T02:41:52.299Z,17.84
2018-12-12T02:44:24.465Z,17.88
2018-12-12T02:46:57.245Z,18.00
2018-12-12T02:49:29.107Z,18.07
2018-12-12T02:52:01.315Z,18.09
2018-12-12T02:54:33.223Z,17.98
2018-12-12T02:57:04.953Z,17.85
2018-12-12T02:59:36.766Z,17.98
2018-12-12T03:02:08.558Z,18.03
2018-12-12T03:04:42.267Z,17.99
2018-12-12T03:07:14.371Z,17.79
2018-12-12T03:09:46.273Z,17.93
2018-12-12T03:12:18.173Z,18.00
2018-12-12T03:14:49.731Z,18.07
2018-12-12T03:17:22.382Z,18.11
2018-12-12T03:19:54.193Z,18.11
2018-12-12T03:22:26.042Z,18.21
2018-12-12T03:24:57.717Z,18.08
2018-12-12T03:27:29.552Z,18.17
2018-12-12T03:30:01.256Z,18.18
2018-12-12T03:32:33.267Z,18.11
2018-12-12T03:35:05.320Z,18.20
2018-12-12T03:37:39.341Z,18.17
2018-12-12T03:40:12.864Z,18.16
2018-12-12T03:42:45.041Z,18.13
2018-12-12T03:45:17.018Z,18.19
2018-12-12T03:47:49.216Z,18.15
2018-12-12T03:50:20.873Z,18.11
2018-12-12T03:52:52.535Z,18.06
2018-12-12T03:55:24.576Z,18.16
2018-12-12T03:57:56.003Z,18.22
2018-12-12T04:00:28.866Z,18.25
2018-12-12T04:03:01.021Z,18.20
2018-12-12T04:05:33.101Z,17.96
2018-12-12T04:08:07.256Z,18.07
2018-12-12T04:10:40.313Z,18.05
2018-12-12T04:13:12.888Z,18.15
2018-12-12T04:15:45.497Z,17.72
2018-12-12T04:18:19.849Z,18.06
2018-12-12T04:20:52.978Z,17.67
2018-12-12T04:23:24.713Z,18.13
2018-12-12T04:25:56.834Z,18.21
2018-12-12T04:28:29.488Z,18.09
2018-12-12T04:31:01.503Z,18.23
2018-12-12T04:33:33.251Z,18.23
2018-12-12T04:36:05.092Z,18.31
2018-12-12T04:38:36.871Z,18.28
2018-12-12T04:41:09.012Z,18.31
2018-12-12T04:43:40.588Z,18.39
2018-12-12T04:46:12.578Z,18.33
2018-12-12T04:48:44.711Z,18.31
2018-12-12T04:51:16.620Z,18.33
2018-12-12T04:53:48.712Z,18.39
2018-12-12T04:56:20.751Z,18.43
2018-12-12T04:58:53.426Z,18.35
2018-12-12T05:01:25.812Z,18.33
2018-12-12T05:03:57.524Z,18.23
2018-12-12T05:06:29.006Z,18.28
2018-12-12T05:09:00.803Z,18.24
2018-12-12T05:11:34.517Z,18.32
2018-12-12T05:14:07.177Z,18.28
2018-12-12T05:16:39.075Z,18.42
2018-12-12T05:19:11.473Z,18.43
2018-12-12T05:21:43.518Z,18.32
2018-12-12T05:24:15.393Z,17.85
2018-12-12T05:26:47.071Z,17.93
2018-12-12T05:29:19.031Z,18.01
2018-12-12T05:31:51.414Z,17.97
2018-12-12T05:34:23.273Z,17.88
2018-12-12T05:36:57.770Z,17.96
2018-12-12T05:39:29.460Z,18.07
2018-12-12T05:42:01.459Z,18.28
2018-12-12T05:44:33.130Z,18.30
2018-12-12T05:47:04.928Z,18.42
2018-12-12T05:49:38.706Z,18.04
2018-12-12T05:52:10.414Z,18.12
2018-12-12T05:54:42.267Z,18.22
2018-12-12T05:57:13.981Z,18.33
2018-12-12T05:59:45.785Z,18.38
2018-12-12T06:02:17.742Z,18.36
2018-12-12T06:04:49.519Z,18.33
2018-12-12T06:07:21.291Z,18.08
2018-12-12T06:09:53.111Z,18.09
2018-12-12T06:12:25.039Z,18.07
2018-12-12T06:14:56.851Z,18.26
2018-12-12T06:17:29.800Z,18.31
2018-12-12T06:20:02.072Z,18.03
2018-12-12T06:22:37.695Z,18.30
2018-12-12T06:25:07.889Z,17.84
2018-12-12T06:27:39.564Z,17.93
2018-12-12T06:30:11.983Z,17.92
2018-12-12T06:32:44.960Z,17.88
2018-12-12T06:35:16.756Z,17.98
2018-12-12T06:37:48.723Z,17.64
2018-12-12T06:40:21.513Z,17.64
2018-12-12T06:42:53.962Z,17.74
2018-12-12T06:45:25.920Z,18.05
2018-12-12T06:47:57.792Z,17.64
2018-12-12T06:50:30.953Z,17.71
2018-12-12T06:53:02.845Z,17.78
2018-12-12T06:55:35.304Z,17.70
2018-12-12T06:58:07.117Z,18.12
2018-12-12T07:00:38.924Z,18.23
2018-12-12T07:03:10.814Z,17.95
2018-12-12T07:05:42.477Z,18.17
2018-12-12T07:08:14.845Z,18.31
2018-12-12T07:10:46.782Z,18.27
2018-12-12T07:13:18.643Z,17.94
2018-12-12T07:15:51.277Z,18.05
2018-12-12T07:18:23.399Z,18.06
2018-12-12T07:20:55.506Z,17.96
2018-12-12T07:23:27.331Z,18.01
2018-12-12T07:25:58.898Z,18.17
2018-12-12T07:28:30.736Z,18.20
2018-12-12T07:31:02.560Z,18.43
2018-12-12T07:33:35.546Z,18.58
2018-12-12T07:36:07.386Z,18.51
2018-12-12T07:38:38.898Z,18.33
2018-12-12T07:41:11.825Z,18.43
2018-12-12T07:43:46.145Z,18.27
2018-12-12T07:46:24.044Z,18.32
2018-12-12T07:48:58.025Z,18.32
2018-12-12T07:51:50.352Z,18.32
2018-12-12T07:54:22.294Z,18.25
2018-12-12T07:56:54.041Z,18.30
2018-12-12T07:59:26.281Z,18.36
2018-12-12T08:01:57.858Z,18.32
2018-12-12T08:04:29.641Z,18.39
2018-12-12T08:07:01.210Z,18.38
2018-12-12T08:09:34.041Z,18.46
2018-12-12T08:12:05.698Z,18.42
2018-12-12T08:14:38.657Z,18.51
2018-12-12T08:17:10.896Z,18.48
2018-12-12T08:19:42.908Z,18.49
2018-12-12T08:22:15.420Z,18.58
2018-12-12T08:24:47.273Z,18.62
2018-12-12T08:27:19.030Z,18.67
2018-12-12T08:29:50.798Z,18.70
2018-12-12T08:32:22.551Z,18.66
2018-12-12T08:34:54.560Z,18.70
2018-12-12T08:37:26.390Z,18.71
2018-12-12T08:39:58.040Z,18.72
2018-12-12T08:42:30.109Z,18.71
2018-12-12T08:45:02.244Z,18.76
2018-12-12T08:47:34.741Z,18.74
2018-12-12T08:50:07.445Z,18.76
2018-12-12T08:52:39.596Z,18.80
2018-12-12T08:55:17.432Z,18.84
2018-12-12T08:57:45.365Z,18.82
2018-12-12T09:00:17.121Z,18.83
2018-12-12T09:02:48.948Z,18.81
2018-12-12T09:05:20.869Z,18.85
2018-12-12T09:07:52.677Z,18.83
2018-12-12T09:10:24.590Z,18.83
2018-12-12T09:12:56.539Z,18.87
2018-12-12T09:15:28.332Z,18.84
2018-12-12T09:17:59.988Z,18.91
2018-12-12T09:20:31.857Z,18.89
2018-12-12T09:23:04.281Z,18.86
2018-12-12T09:25:36.054Z,18.80
2018-12-12T09:28:09.146Z,18.84
2018-12-12T09:30:43.205Z,18.83
2018-12-12T09:33:17.060Z,18.84
2018-12-12T09:35:54.407Z,18.81
2018-12-12T09:38:26.615Z,18.78
2018-12-12T09:40:58.936Z,18.80
2018-12-12T09:43:30.878Z,18.78
2018-12-12T09:46:03.050Z,18.85
2018-12-12T09:48:34.669Z,18.83
2018-12-12T09:51:07.521Z,18.84
2018-12-12T09:53:42.126Z,18.83
2018-12-12T09:56:13.952Z,18.83
2018-12-12T09:58:46.433Z,18.83
2018-12-12T10:01:18.500Z,18.79
2018-12-12T10:03:50.386Z,18.74
2018-12-12T10:06:22.049Z,18.74
2018-12-12T10:08:53.767Z,18.73
2018-12-12T10:11:25.495Z,18.72
2018-12-12T10:14:00.323Z,18.76
2018-12-12T10:16:33.642Z,18.72
2018-12-12T10:19:10.945Z,18.71
2018-12-12T10:21:46.487Z,18.69
2018-12-12T10:24:19.223Z,18.72
2018-12-12T10:26:51.174Z,18.68
2018-12-12T10:29:22.962Z,18.68
2018-12-12T10:31:55.379Z,18.81
2018-12-12T10:34:27.243Z,18.73
2018-12-12T10:36:59.669Z,18.71
2018-12-12T10:39:31.710Z,18.72
2018-12-12T10:42:03.603Z,18.79
2018-12-12T10:44:35.513Z,18.72
2018-12-12T10:47:07.232Z,18.71
2018-12-12T10:49:39.868Z,18.68
2018-12-12T10:52:12.039Z,18.66
2018-12-12T10:54:44.167Z,18.58
2018-12-12T10:57:16.085Z,18.66
2018-12-12T10:59:48.152Z,18.70
2018-12-12T11:02:24.564Z,18.82
2018-12-12T11:04:56.400Z,18.67
2018-12-12T11:07:28.522Z,18.74
2018-12-12T11:10:01.195Z,18.70
2018-12-12T11:12:35.903Z,18.82
2018-12-12T11:15:07.711Z,18.81
2018-12-12T11:17:39.737Z,18.76
2018-12-12T11:20:12.325Z,18.66
2018-12-12T11:22:44.224Z,18.76
2018-12-12T11:25:16.421Z,18.63
2018-12-12T11:27:48.785Z,18.76
2018-12-12T11:30:20.734Z,18.64
2018-12-12T11:32:52.651Z,18.65
2018-12-12T11:35:25.436Z,18.79
2018-12-12T11:37:58.268Z,18.83
2018-12-12T11:40:30.175Z,18.83
2018-12-12T11:43:01.959Z,18.84
2018-12-12T11:45:33.638Z,18.86
2018-12-12T11:48:06.564Z,18.80
2018-12-12T11:50:38.254Z,18.80
2018-12-12T11:53:09.964Z,18.92
2018-12-12T11:55:42.225Z,18.91
2018-12-12T11:58:14.275Z,18.98
2018-12-12T12:00:46.232Z,18.95
2018-12-12T12:03:17.884Z,18.96
2018-12-12T12:05:51.012Z,18.96
2018-12-12T12:08:22.912Z,19.03
2018-12-12T12:10:54.747Z,18.99
2018-12-12T12:13:28.835Z,18.93
2018-12-12T12:16:00.509Z,18.91
2018-12-12T12:18:32.278Z,18.82
2018-12-12T12:21:04.192Z,18.77
2018-12-12T12:23:36.164Z,18.75
2018-12-12T12:26:09.515Z,18.77
2018-12-12T12:28:41.208Z,18.68
2018-12-12T12:31:12.873Z,18.70
2018-12-12T12:33:45.012Z,18.87
2018-12-12T12:36:16.758Z,18.88
2018-12-12T12:38:48.839Z,18.87
2018-12-12T12:41:20.657Z,18.83
2018-12-12T12:43:52.677Z,18.81
2018-12-12T12:46:27.164Z,18.82
2018-12-12T12:48:59.279Z,18.83
2018-12-12T12:51:31.160Z,18.75
2018-12-12T12:54:02.924Z,18.69
2018-12-12T12:56:35.420Z,18.73
2018-12-12T12:59:06.944Z,18.75
2018-12-12T13:01:38.881Z,18.80
2018-12-12T13:04:10.343Z,18.81
2018-12-12T13:06:42.517Z,18.83
2018-12-12T13:09:14.304Z,18.80
2018-12-12T13:11:46.248Z,18.76
2018-12-12T13:14:18.264Z,18.79
2018-12-12T13:16:50.448Z,18.81
2018-12-12T13:19:22.439Z,18.81
2018-12-12T13:21:53.849Z,18.83
2018-12-12T13:24:25.708Z,18.84
2018-12-12T13:26:57.939Z,18.84
2018-12-12T13:29:29.919Z,18.82
2018-12-12T13:32:01.566Z,18.78
2018-12-12T13:34:33.644Z,18.80
2018-12-12T13:37:05.659Z,18.79
2018-12-12T13:39:37.287Z,18.71
2018-12-12T13:42:09.277Z,18.44
2018-12-12T13:44:41.101Z,18.02
2018-12-12T13:47:17.326Z,17.97
2018-12-12T13:49:47.221Z,17.94
2018-12-12T13:52:19.218Z,17.93
2018-12-12T13:54:51.336Z,17.78
2018-12-12T13:57:23.800Z,17.76
2018-12-12T13:59:55.582Z,17.76
2018-12-12T14:02:29.345Z,17.75
2018-12-12T14:05:01.597Z,17.72
2018-12-12T14:07:34.222Z,17.73
2018-12-12T14:10:06.207Z,17.69
2018-12-12T14:12:38.068Z,17.72
2018-12-12T14:15:09.733Z,17.67
2018-12-12T14:17:41.583Z,17.68
2018-12-12T14:20:13.543Z,17.57
2018-12-12T14:22:46.635Z,17.56
2018-12-12T14:25:18.492Z,17.46
2018-12-12T14:27:50.937Z,17.72
2018-12-12T14:30:25.084Z,17.69
2018-12-12T14:32:57.056Z,17.58
2018-12-12T14:35:30.106Z,17.60
2018-12-12T14:38:02.162Z,17.57
2018-12-12T14:40:34.495Z,17.62
2018-12-12T14:43:06.399Z,17.58
2018-12-12T14:45:39.268Z,17.53
2018-12-12T14:48:11.443Z,17.46
2018-12-12T14:50:43.326Z,17.45
2018-12-12T14:53:15.089Z,17.45
2018-12-12T14:55:46.912Z,17.50
2018-12-12T14:58:19.585Z,17.50
2018-12-12T15:00:51.725Z,17.47
2018-12-12T15:03:28.431Z,17.39
2018-12-12T15:06:00.171Z,17.34
2018-12-12T15:08:33.230Z,17.27
2018-12-12T15:11:05.289Z,17.31
2018-12-12T15:13:37.124Z,17.34
2018-12-12T15:16:09.039Z,17.37
2018-12-12T15:18:40.806Z,17.38
2018-12-12T15:21:14.881Z,17.29
2018-12-12T15:23:47.905Z,17.23
2018-12-12T15:26:19.867Z,17.19
2018-12-12T15:28:52.688Z,17.17
2018-12-12T15:31:24.678Z,17.14
2018-12-12T15:33:57.047Z,17.11
2018-12-12T15:36:28.975Z,17.09
2018-12-12T15:39:01.209Z,17.11
2018-12-12T15:41:36.049Z,17.08
2018-12-12T15:44:08.138Z,17.18
2018-12-12T15:46:39.918Z,17.18
2018-12-12T15:49:42.399Z,17.11
2018-12-12T16:05:59.900Z,16.96
2018-12-12T16:08:32.124Z,16.96
2018-12-12T16:13:46.478Z,17.06
2018-12-12T16:16:18.680Z,17.05
2018-12-12T16:18:50.806Z,17.06
2018-12-12T16:21:22.836Z,17.05
2018-12-12T16:23:54.738Z,16.97
2018-12-12T16:26:27.069Z,16.96
2018-12-12T16:28:59.320Z,17.05
2018-12-12T16:31:31.250Z,17.10
2018-12-12T16:34:03.276Z,17.13
2018-12-12T16:36:35.070Z,17.11
2018-12-12T16:39:09.175Z,17.09
2018-12-12T16:41:41.329Z,17.08
2018-12-12T16:44:13.165Z,17.10
2018-12-12T16:46:51.305Z,17.04
2018-12-12T16:49:23.124Z,16.99
2018-12-12T16:51:54.902Z,16.98
2018-12-12T16:54:27.279Z,16.99
2018-12-12T16:56:58.895Z,16.99
2018-12-12T16:59:36.426Z,16.99
2018-12-12T17:02:08.240Z,17.00
2018-12-12T17:04:39.953Z,16.98
2018-12-12T17:07:12.729Z,16.93
2018-12-12T17:09:44.946Z,16.95
2018-12-12T17:12:16.423Z,16.84
2018-12-12T17:14:48.243Z,16.75
2018-12-12T17:17:20.172Z,16.76
2018-12-12T17:19:52.016Z,16.79
2018-12-12T17:22:24.014Z,16.79
2018-12-12T17:24:56.044Z,16.71
2018-12-12T17:27:27.799Z,16.68
2018-12-12T17:29:59.804Z,16.76
2018-12-12T17:32:32.918Z,16.62
2018-12-12T17:35:08.810Z,16.71
2018-12-12T17:37:38.797Z,16.78
2018-12-12T17:40:11.220Z,16.76
2018-12-12T17:42:42.985Z,16.70
2018-12-12T17:45:14.892Z,16.79
2018-12-12T17:47:48.025Z,16.84
2018-12-12T17:50:21.201Z,16.82
2018-12-12T17:52:53.253Z,16.79
2018-12-12T17:55:25.516Z,16.83
2018-12-12T17:57:58.266Z,16.74
2018-12-12T18:00:30.282Z,16.70
2018-12-12T18:03:04.496Z,16.67
2018-12-12T18:05:57.146Z,16.74
2018-12-12T18:08:29.084Z,16.74
2018-12-12T18:11:01.510Z,16.81
2018-12-12T18:13:35.702Z,16.81
2018-12-12T18:16:09.625Z,16.77
2018-12-12T18:18:42.780Z,16.78
2018-12-12T18:21:14.651Z,16.76
2018-12-12T18:23:50.025Z,16.75
2018-12-12T18:26:22.156Z,16.56
2018-12-12T18:28:54.500Z,16.59
2018-12-12T18:31:30.918Z,16.62
2018-12-12T18:34:20.483Z,16.60
2018-12-12T18:36:52.522Z,16.66
2018-12-12T18:39:24.215Z,16.63
2018-12-12T18:41:56.324Z,16.57
2018-12-12T18:44:34.305Z,16.57
2018-12-12T18:47:06.112Z,16.55
2018-12-12T18:49:43.589Z,16.53
2018-12-12T18:52:17.473Z,16.57
2018-12-12T18:54:49.140Z,16.62
2018-12-12T18:57:23.010Z,16.61
2018-12-12T18:59:54.687Z,16.59
2018-12-12T19:02:26.302Z,16.53
2018-12-12T19:04:58.299Z,16.53
2018-12-12T19:07:29.907Z,16.38
2018-12-12T19:10:03.351Z,16.42
2018-12-12T19:12:35.735Z,16.31
2018-12-12T19:15:09.358Z,16.31
2018-12-12T19:17:41.336Z,16.27
2018-12-12T19:20:13.472Z,16.35
2018-12-12T19:22:45.514Z,16.37
2018-12-12T19:25:17.587Z,16.20
2018-12-12T19:27:49.273Z,16.28
2018-12-12T19:30:21.470Z,16.35
2018-12-12T19:32:54.378Z,16.32
2018-12-12T19:35:26.119Z,16.34
2018-12-12T19:37:58.977Z,16.34
2018-12-12T19:40:30.975Z,16.34
2018-12-12T19:43:04.347Z,16.35
2018-12-12T19:45:37.245Z,16.32
2018-12-12T19:48:08.922Z,16.35
2018-12-12T19:50:41.068Z,16.31
2018-12-12T19:53:14.168Z,16.32
2018-12-12T19:55:46.329Z,16.21
2018-12-12T19:58:18.144Z,16.27
2018-12-12T20:00:49.762Z,16.26
2018-12-12T20:03:22.044Z,16.32
2018-12-12T20:05:54.787Z,16.29
2018-12-12T20:08:26.717Z,16.31
2018-12-12T20:10:58.870Z,16.33
2018-12-12T20:13:30.982Z,16.25
2018-12-12T20:16:02.954Z,16.14
2018-12-12T20:18:35.175Z,16.09
2018-12-12T20:21:07.207Z,16.06
2018-12-12T20:23:38.827Z,16.16
2018-12-12T20:26:10.706Z,16.16
2018-12-12T20:28:42.456Z,16.07
2018-12-12T20:31:14.803Z,16.12
2018-12-12T20:33:46.902Z,16.09
2018-12-12T20:36:19.081Z,16.03
2018-12-12T20:38:52.292Z,16.05
2018-12-12T20:41:24.633Z,16.05
2018-12-12T20:43:56.788Z,16.07
2018-12-12T20:46:29.901Z,15.97
2018-12-12T20:49:01.712Z,15.97
2018-12-12T20:51:34.471Z,15.93
2018-12-12T20:54:07.171Z,15.98
2018-12-12T20:56:39.212Z,15.91
2018-12-12T20:59:10.977Z,15.85
2018-12-12T21:01:42.543Z,15.90
2018-12-12T21:04:15.444Z,15.94
2018-12-12T21:06:48.735Z,15.82
2018-12-12T21:09:24.034Z,15.89
2018-12-12T21:11:56.509Z,15.87
2018-12-12T21:14:28.976Z,15.80
2018-12-12T21:17:01.993Z,15.79
2018-12-12T21:19:34.990Z,15.81
2018-12-12T21:22:08.277Z,15.81
2018-12-12T21:24:40.206Z,15.74
2018-12-12T21:27:12.026Z,15.83
2018-12-12T21:29:43.495Z,15.73
2018-12-12T21:32:15.334Z,15.79
2018-12-12T21:34:47.883Z,15.88
2018-12-12T21:37:20.790Z,15.76
2018-12-12T21:39:52.723Z,15.76
2018-12-12T21:42:24.961Z,15.80
2018-12-12T21:44:57.300Z,15.62
2018-12-12T21:47:30.527Z,15.64
2018-12-12T21:50:02.273Z,15.66
2018-12-12T21:52:34.482Z,15.67
2018-12-12T21:55:06.154Z,15.75
2018-12-12T21:57:39.268Z,15.74
2018-12-12T22:00:11.860Z,15.76
2018-12-12T22:02:43.834Z,15.69
2018-12-12T22:05:16.544Z,15.60
2018-12-12T22:07:48.313Z,15.54
2018-12-12T22:10:20.357Z,15.45
2018-12-12T22:12:52.280Z,15.44
2018-12-12T22:15:24.634Z,15.50
2018-12-12T22:17:56.553Z,15.58
2018-12-12T22:20:28.374Z,15.54
2018-12-12T22:23:00.642Z,15.51
2018-12-12T22:25:32.772Z,15.46
2018-12-12T22:28:04.962Z,15.51
2018-12-12T22:30:36.833Z,15.47
2018-12-12T22:33:09.251Z,15.48
2018-12-12T22:35:41.166Z,15.43
2018-12-12T22:38:13.423Z,15.46
2018-12-12T22:40:45.336Z,15.34
2018-12-12T22:43:17.432Z,15.26
2018-12-12T22:45:49.786Z,15.37
2018-12-12T22:48:25.765Z,15.38
2018-12-12T22:50:57.428Z,15.28
2018-12-12T22:53:30.346Z,15.32
2018-12-12T22:56:02.871Z,15.24
2018-12-12T22:58:34.537Z,15.28
2018-12-12T23:01:13.785Z,15.29
2018-12-12T23:03:47.901Z,15.39
2018-12-12T23:06:20.818Z,15.24
2018-12-12T23:08:52.643Z,15.34
2018-12-12T23:11:25.434Z,15.35
2018-12-12T23:13:57.377Z,15.31
2018-12-12T23:16:29.656Z,15.17
2018-12-12T23:19:01.237Z,15.14
2018-12-12T23:21:33.269Z,15.19
2018-12-12T23:24:05.379Z,15.16
2018-12-12T23:26:38.092Z,15.06
2018-12-12T23:29:10.085Z,15.00
2018-12-12T23:31:41.633Z,14.93
2018-12-12T23:34:13.693Z,15.07
2018-12-12T23:36:45.412Z,15.14
2018-12-12T23:39:17.291Z,15.16
2018-12-12T23:41:49.006Z,15.20
2018-12-12T23:44:20.973Z,15.17
2018-12-12T23:46:53.166Z,15.07
2018-12-12T23:49:25.071Z,15.02
2018-12-12T23:51:56.953Z,15.09
2018-12-12T23:54:28.688Z,15.09
2018-12-12T23:57:00.368Z,15.16
2018-12-12T23:59:32.059Z,15.06
